sensor_id;sensor_type;location;lat;lon;timestamp;pressure;altitude;pressure_sealevel;temperature;humidity
41573;BME280;27286;47.870;19.006;2023-02-02T00:00:07;98935.19;;;3.31;91.31
41573;BME280;27286;47.870;19.006;2023-02-02T00:02:33;98923.16;;;3.32;91.17
41573;BME280;27286;47.870;19.006;2023-02-02T00:04:58;98894.03;;;3.31;90.89
41573;BME280;27286;47.870;19.006;2023-02-02T00:07:24;98901.88;;;3.25;90.77
41573;BME280;27286;47.870;19.006;2023-02-02T00:09:49;98887.47;;;3.17;90.79
41573;BME280;27286;47.870;19.006;2023-02-02T00:12:14;98884.06;;;3.15;91.18
41573;BME280;27286;47.870;19.006;2023-02-02T00:14:40;98876.28;;;3.19;90.05
41573;BME280;27286;47.870;19.006;2023-02-02T00:17:08;98861.16;;;3.04;90.49
41573;BME280;27286;47.870;19.006;2023-02-02T00:19:34;98898.78;;;3.08;90.31
41573;BME280;27286;47.870;19.006;2023-02-02T00:22:00;98894.56;;;3.06;90.25
41573;BME280;27286;47.870;19.006;2023-02-02T00:24:25;98890.44;;;2.97;90.19
41573;BME280;27286;47.870;19.006;2023-02-02T00:26:53;98892.38;;;2.86;91.48
41573;BME280;27286;47.870;19.006;2023-02-02T00:29:22;98871.78;;;2.87;91.18
41573;BME280;27286;47.870;19.006;2023-02-02T00:31:48;98885.53;;;2.83;90.74
41573;BME280;27286;47.870;19.006;2023-02-02T00:34:14;98887.22;;;2.84;91.14
41573;BME280;27286;47.870;19.006;2023-02-02T00:36:41;98893.13;;;2.91;90.60
41573;BME280;27286;47.870;19.006;2023-02-02T00:39:07;98908.72;;;2.82;90.60
41573;BME280;27286;47.870;19.006;2023-02-02T00:41:33;98917.28;;;2.82;90.69
41573;BME280;27286;47.870;19.006;2023-02-02T00:43:59;98900.16;;;2.81;90.38
41573;BME280;27286;47.870;19.006;2023-02-02T00:46:43;98904.53;;;2.76;91.72
41573;BME280;27286;47.870;19.006;2023-02-02T00:49:08;98908.09;;;2.67;92.18
41573;BME280;27286;47.870;19.006;2023-02-02T00:51:37;98927.88;;;2.64;92.34
41573;BME280;27286;47.870;19.006;2023-02-02T00:54:03;98925.38;;;2.61;92.20
41573;BME280;27286;47.870;19.006;2023-02-02T00:56:29;98925.56;;;2.49;93.07
41573;BME280;27286;47.870;19.006;2023-02-02T00:58:54;98929.06;;;2.45;92.42
41573;BME280;27286;47.870;19.006;2023-02-02T01:01:21;98933.34;;;2.46;93.03
41573;BME280;27286;47.870;19.006;2023-02-02T01:03:48;98935.97;;;2.42;91.36
41573;BME280;27286;47.870;19.006;2023-02-02T01:06:13;98945.50;;;2.36;93.03
41573;BME280;27286;47.870;19.006;2023-02-02T01:08:39;98958.50;;;2.25;94.11
41573;BME280;27286;47.870;19.006;2023-02-02T01:11:05;98950.81;;;2.24;95.00
41573;BME280;27286;47.870;19.006;2023-02-02T01:13:31;98968.72;;;2.28;93.38
41573;BME280;27286;47.870;19.006;2023-02-02T01:15:58;98955.13;;;2.22;94.04
41573;BME280;27286;47.870;19.006;2023-02-02T01:18:24;98957.66;;;2.23;93.79
41573;BME280;27286;47.870;19.006;2023-02-02T01:21:00;98956.69;;;2.30;93.48
41573;BME280;27286;47.870;19.006;2023-02-02T01:23:26;98962.63;;;2.35;92.86
41573;BME280;27286;47.870;19.006;2023-02-02T01:25:56;98978.84;;;2.39;93.27
41573;BME280;27286;47.870;19.006;2023-02-02T01:28:23;98971.16;;;2.37;93.47
41573;BME280;27286;47.870;19.006;2023-02-02T01:30:49;98967.75;;;2.37;93.32
41573;BME280;27286;47.870;19.006;2023-02-02T01:33:15;98965.97;;;2.40;92.65
41573;BME280;27286;47.870;19.006;2023-02-02T01:35:48;98960.03;;;2.37;94.00
41573;BME280;27286;47.870;19.006;2023-02-02T01:38:14;98958.34;;;2.34;93.92
41573;BME280;27286;47.870;19.006;2023-02-02T01:40:47;98948.16;;;2.28;94.81
41573;BME280;27286;47.870;19.006;2023-02-02T01:45:46;98939.78;;;2.19;95.48
41573;BME280;27286;47.870;19.006;2023-02-02T01:48:12;98945.88;;;2.10;96.58
41573;BME280;27286;47.870;19.006;2023-02-02T01:50:39;98939.06;;;2.09;96.69
41573;BME280;27286;47.870;19.006;2023-02-02T01:53:05;98935.63;;;2.08;95.86
41573;BME280;27286;47.870;19.006;2023-02-02T01:55:33;98927.19;;;2.02;97.15
41573;BME280;27286;47.870;19.006;2023-02-02T01:58:04;98919.47;;;2.00;96.70
41573;BME280;27286;47.870;19.006;2023-02-02T02:00:31;98910.13;;;1.98;97.26
41573;BME280;27286;47.870;19.006;2023-02-02T02:03:04;98898.16;;;1.97;97.80
41573;BME280;27286;47.870;19.006;2023-02-02T02:05:35;98882.72;;;1.98;97.78
41573;BME280;27286;47.870;19.006;2023-02-02T02:08:13;98877.63;;;1.97;97.39
41573;BME280;27286;47.870;19.006;2023-02-02T02:10:39;98886.19;;;1.96;96.96
41573;BME280;27286;47.870;19.006;2023-02-02T02:13:05;98899.00;;;1.97;97.23
41573;BME280;27286;47.870;19.006;2023-02-02T02:15:37;98917.81;;;1.98;97.24
41573;BME280;27286;47.870;19.006;2023-02-02T02:24:28;98926.47;;;1.92;97.93
41573;BME280;27286;47.870;19.006;2023-02-02T02:32:50;98901.66;;;1.93;98.13
41573;BME280;27286;47.870;19.006;2023-02-02T02:35:32;98908.53;;;1.91;97.60
41573;BME280;27286;47.870;19.006;2023-02-02T02:38:07;98895.81;;;1.81;97.74
41573;BME280;27286;47.870;19.006;2023-02-02T02:40:40;98892.53;;;1.73;98.28
41573;BME280;27286;47.870;19.006;2023-02-02T02:43:15;98885.88;;;1.60;98.91
41573;BME280;27286;47.870;19.006;2023-02-02T02:45:42;98896.94;;;1.64;98.99
41573;BME280;27286;47.870;19.006;2023-02-02T02:48:09;98907.16;;;1.65;99.16
41573;BME280;27286;47.870;19.006;2023-02-02T02:50:35;98902.91;;;1.64;99.10
41573;BME280;27286;47.870;19.006;2023-02-02T02:53:10;98898.66;;;1.63;99.34
41573;BME280;27286;47.870;19.006;2023-02-02T02:56:05;98907.97;;;1.67;99.04
41573;BME280;27286;47.870;19.006;2023-02-02T02:58:57;98909.53;;;1.79;98.54
41573;BME280;27286;47.870;19.006;2023-02-02T03:01:38;98914.66;;;1.80;98.33
41573;BME280;27286;47.870;19.006;2023-02-02T03:04:17;98908.59;;;1.85;98.32
41573;BME280;27286;47.870;19.006;2023-02-02T03:06:56;98913.72;;;1.85;98.22
41573;BME280;27286;47.870;19.006;2023-02-02T03:09:34;98919.72;;;1.87;98.16
41573;BME280;27286;47.870;19.006;2023-02-02T03:12:02;98907.50;;;2.01;96.99
41573;BME280;27286;47.870;19.006;2023-02-02T03:14:33;98920.22;;;2.10;96.12
41573;BME280;27286;47.870;19.006;2023-02-02T03:16:59;98913.38;;;2.09;96.65
41573;BME280;27286;47.870;19.006;2023-02-02T03:19:24;98914.28;;;2.06;96.83
41573;BME280;27286;47.870;19.006;2023-02-02T03:21:49;98922.78;;;2.10;96.29
41573;BME280;27286;47.870;19.006;2023-02-02T03:24:15;98919.38;;;2.08;96.27
41573;BME280;27286;47.870;19.006;2023-02-02T03:26:40;98924.53;;;2.08;96.01
41573;BME280;27286;47.870;19.006;2023-02-02T03:29:06;98925.28;;;2.13;96.21
41573;BME280;27286;47.870;19.006;2023-02-02T03:31:31;98924.38;;;2.16;96.21
41573;BME280;27286;47.870;19.006;2023-02-02T03:33:57;98926.06;;;2.18;95.98
41573;BME280;27286;47.870;19.006;2023-02-02T03:36:22;98933.75;;;2.18;96.17
41573;BME280;27286;47.870;19.006;2023-02-02T03:38:47;98929.53;;;2.16;96.27
41573;BME280;27286;47.870;19.006;2023-02-02T03:41:13;98915.81;;;2.17;95.80
41573;BME280;27286;47.870;19.006;2023-02-02T03:43:39;98913.22;;;2.18;96.33
41573;BME280;27286;47.870;19.006;2023-02-02T03:46:05;98902.09;;;2.18;95.92
41573;BME280;27286;47.870;19.006;2023-02-02T03:48:34;98890.97;;;2.17;96.51
41573;BME280;27286;47.870;19.006;2023-02-02T03:51:00;98896.13;;;2.19;96.22
41573;BME280;27286;47.870;19.006;2023-02-02T03:53:25;98894.47;;;2.13;96.22
41573;BME280;27286;47.870;19.006;2023-02-02T03:55:50;98884.31;;;2.07;97.14
41573;BME280;27286;47.870;19.006;2023-02-02T03:58:16;98879.19;;;2.07;96.50
41573;BME280;27286;47.870;19.006;2023-02-02T04:00:42;98872.44;;;2.00;95.88
41573;BME280;27286;47.870;19.006;2023-02-02T04:03:07;98880.09;;;2.01;95.90
41573;BME280;27286;47.870;19.006;2023-02-02T04:05:32;98870.75;;;1.97;95.21
41573;BME280;27286;47.870;19.006;2023-02-02T04:07:58;98872.44;;;2.00;95.82
41573;BME280;27286;47.870;19.006;2023-02-02T04:10:23;98869.03;;;1.98;94.95
41573;BME280;27286;47.870;19.006;2023-02-02T04:12:49;98876.91;;;1.89;95.37
41573;BME280;27286;47.870;19.006;2023-02-02T04:15:15;98864.97;;;1.85;95.32
41573;BME280;27286;47.870;19.006;2023-02-02T04:17:40;98861.63;;;1.79;95.80
41573;BME280;27286;47.870;19.006;2023-02-02T04:20:06;98861.56;;;1.83;95.10
41573;BME280;27286;47.870;19.006;2023-02-02T04:22:32;98858.97;;;1.84;95.20
41573;BME280;27286;47.870;19.006;2023-02-02T04:24:57;98859.97;;;1.77;95.43
41573;BME280;27286;47.870;19.006;2023-02-02T04:27:23;98863.41;;;1.76;95.50
41573;BME280;27286;47.870;19.006;2023-02-02T04:29:48;98860.09;;;1.66;95.25
41573;BME280;27286;47.870;19.006;2023-02-02T04:32:15;98832.84;;;1.61;95.69
41573;BME280;27286;47.870;19.006;2023-02-02T04:34:41;98845.75;;;1.55;95.84
41573;BME280;27286;47.870;19.006;2023-02-02T04:37:07;98868.13;;;1.45;95.58
41573;BME280;27286;47.870;19.006;2023-02-02T04:39:32;98862.09;;;1.47;95.24
41573;BME280;27286;47.870;19.006;2023-02-02T04:41:57;98857.75;;;1.53;95.09
41573;BME280;27286;47.870;19.006;2023-02-02T04:44:23;98856.06;;;1.50;94.61
41573;BME280;27286;47.870;19.006;2023-02-02T04:46:48;98863.84;;;1.44;95.33
41573;BME280;27286;47.870;19.006;2023-02-02T04:49:14;98847.31;;;1.63;93.43
41573;BME280;27286;47.870;19.006;2023-02-02T04:51:40;98845.69;;;1.59;92.51
41573;BME280;27286;47.870;19.006;2023-02-02T04:54:06;98840.78;;;1.42;93.91
41573;BME280;27286;47.870;19.006;2023-02-02T04:56:32;98856.28;;;1.36;94.66
41573;BME280;27286;47.870;19.006;2023-02-02T04:58:57;98861.44;;;1.35;94.72
41573;BME280;27286;47.870;19.006;2023-02-02T05:01:23;98842.72;;;1.27;94.57
41573;BME280;27286;47.870;19.006;2023-02-02T05:03:49;98835.69;;;1.41;94.25
41573;BME280;27286;47.870;19.006;2023-02-02T05:06:15;98857.13;;;1.34;94.09
41573;BME280;27286;47.870;19.006;2023-02-02T05:08:42;98854.69;;;1.26;94.57
41573;BME280;27286;47.870;19.006;2023-02-02T05:11:13;98859.72;;;1.34;94.51
41573;BME280;27286;47.870;19.006;2023-02-02T05:13:39;98857.13;;;1.34;93.50
41573;BME280;27286;47.870;19.006;2023-02-02T05:16:05;98854.50;;;1.40;93.92
41573;BME280;27286;47.870;19.006;2023-02-02T05:18:31;98863.19;;;1.30;93.98
41573;BME280;27286;47.870;19.006;2023-02-02T05:21:01;98864.16;;;1.21;93.69
41573;BME280;27286;47.870;19.006;2023-02-02T05:23:26;98872.91;;;1.05;95.42
41573;BME280;27286;47.870;19.006;2023-02-02T05:25:53;98888.31;;;1.03;96.39
41573;BME280;27286;47.870;19.006;2023-02-02T05:28:19;98881.50;;;1.02;96.16
41573;BME280;27286;47.870;19.006;2023-02-02T05:30:45;98890.00;;;1.04;95.97
41573;BME280;27286;47.870;19.006;2023-02-02T05:33:10;98915.59;;;1.09;96.06
41573;BME280;27286;47.870;19.006;2023-02-02T05:35:36;98920.75;;;1.06;95.40
41573;BME280;27286;47.870;19.006;2023-02-02T05:38:02;98916.63;;;0.93;95.90
41573;BME280;27286;47.870;19.006;2023-02-02T05:40:27;98913.16;;;0.97;96.47
41573;BME280;27286;47.870;19.006;2023-02-02T05:42:52;98915.81;;;0.89;96.74
41573;BME280;27286;47.870;19.006;2023-02-02T05:45:18;98925.19;;;0.90;95.97
41573;BME280;27286;47.870;19.006;2023-02-02T05:47:43;98918.34;;;0.90;96.28
41573;BME280;27286;47.870;19.006;2023-02-02T05:50:09;98932.06;;;0.86;97.12
41573;BME280;27286;47.870;19.006;2023-02-02T05:52:35;98922.75;;;0.78;97.44
41573;BME280;27286;47.870;19.006;2023-02-02T05:55:02;98926.13;;;0.81;97.18
41573;BME280;27286;47.870;19.006;2023-02-02T05:57:28;98953.44;;;0.82;96.71
41573;BME280;27286;47.870;19.006;2023-02-02T05:59:53;98961.16;;;0.81;97.28
41573;BME280;27286;47.870;19.006;2023-02-02T06:02:19;98955.16;;;0.82;96.61
41573;BME280;27286;47.870;19.006;2023-02-02T06:04:44;98974.06;;;0.67;97.37
41573;BME280;27286;47.870;19.006;2023-02-02T06:07:10;98983.53;;;0.60;97.68
41573;BME280;27286;47.870;19.006;2023-02-02T06:09:36;98990.41;;;0.55;97.45
41573;BME280;27286;47.870;19.006;2023-02-02T06:12:02;98995.34;;;0.77;95.70
41573;BME280;27286;47.870;19.006;2023-02-02T06:14:28;98991.97;;;0.75;96.39
41573;BME280;27286;47.870;19.006;2023-02-02T06:16:53;99000.47;;;0.78;95.50
41573;BME280;27286;47.870;19.006;2023-02-02T06:19:19;99003.91;;;0.76;96.43
41573;BME280;27286;47.870;19.006;2023-02-02T06:21:44;99011.63;;;0.71;96.59
41573;BME280;27286;47.870;19.006;2023-02-02T06:24:09;99009.78;;;0.88;95.30
41573;BME280;27286;47.870;19.006;2023-02-02T06:26:35;99015.69;;;0.94;94.58
41573;BME280;27286;47.870;19.006;2023-02-02T06:29:00;99014.59;;;1.20;93.55
41573;BME280;27286;47.870;19.006;2023-02-02T06:31:27;99014.53;;;1.25;92.67
41573;BME280;27286;47.870;19.006;2023-02-02T06:33:57;99024.78;;;1.25;92.90
41573;BME280;27286;47.870;19.006;2023-02-02T06:36:24;99035.06;;;1.25;92.71
41573;BME280;27286;47.870;19.006;2023-02-02T06:38:51;99029.84;;;1.33;92.10
41573;BME280;27286;47.870;19.006;2023-02-02T06:41:18;99031.47;;;1.40;91.99
41573;BME280;27286;47.870;19.006;2023-02-02T06:43:45;99033.94;;;1.49;91.49
41573;BME280;27286;47.870;19.006;2023-02-02T06:46:10;99043.38;;;1.45;91.74
41573;BME280;27286;47.870;19.006;2023-02-02T06:48:35;99040.78;;;1.48;91.97
41573;BME280;27286;47.870;19.006;2023-02-02T06:51:01;99024.50;;;1.54;90.88
41573;BME280;27286;47.870;19.006;2023-02-02T06:53:26;99030.31;;;1.67;91.32
41573;BME280;27286;47.870;19.006;2023-02-02T06:55:59;99021.72;;;1.68;90.34
41573;BME280;27286;47.870;19.006;2023-02-02T06:58:26;99033.81;;;1.60;92.25
41573;BME280;27286;47.870;19.006;2023-02-02T07:00:52;99035.50;;;1.61;91.92
41573;BME280;27286;47.870;19.006;2023-02-02T07:03:19;99048.19;;;1.74;91.25
41573;BME280;27286;47.870;19.006;2023-02-02T07:05:48;99049.81;;;1.80;90.10
41573;BME280;27286;47.870;19.006;2023-02-02T07:08:14;99039.66;;;1.72;89.97
41573;BME280;27286;47.870;19.006;2023-02-02T07:10:39;99043.97;;;1.70;89.97
41573;BME280;27286;47.870;19.006;2023-02-02T07:13:05;99000.63;;;1.44;90.08
41573;BME280;27286;47.870;19.006;2023-02-02T07:15:32;99013.31;;;1.58;88.42
41573;BME280;27286;47.870;19.006;2023-02-02T07:17:58;99025.22;;;1.62;88.30
41573;BME280;27286;47.870;19.006;2023-02-02T07:20:24;99001.44;;;1.48;88.92
41573;BME280;27286;47.870;19.006;2023-02-02T07:22:49;99011.63;;;1.57;89.10
41573;BME280;27286;47.870;19.006;2023-02-02T07:25:15;99038.00;;;1.70;89.90
41573;BME280;27286;47.870;19.006;2023-02-02T07:27:40;99062.63;;;1.81;89.05
41573;BME280;27286;47.870;19.006;2023-02-02T07:30:06;99063.50;;;1.80;88.77
41573;BME280;27286;47.870;19.006;2023-02-02T07:32:32;99063.56;;;1.76;89.62
41573;BME280;27286;47.870;19.006;2023-02-02T07:34:57;99060.94;;;1.80;89.14
41573;BME280;27286;47.870;19.006;2023-02-02T07:37:22;99062.63;;;1.81;88.82
41573;BME280;27286;47.870;19.006;2023-02-02T07:39:48;99058.34;;;1.82;88.48
41573;BME280;27286;47.870;19.006;2023-02-02T07:42:13;99075.50;;;1.80;89.09
41573;BME280;27286;47.870;19.006;2023-02-02T07:44:39;99072.91;;;1.81;89.54
41573;BME280;27286;47.870;19.006;2023-02-02T07:47:04;99068.63;;;1.82;88.12
41573;BME280;27286;47.870;19.006;2023-02-02T07:49:30;99081.22;;;2.03;86.08
41573;BME280;27286;47.870;19.006;2023-02-02T07:51:55;99069.41;;;1.89;87.90
41573;BME280;27286;47.870;19.006;2023-02-02T07:54:22;99083.09;;;1.89;88.89
41573;BME280;27286;47.870;19.006;2023-02-02T07:56:47;99083.94;;;1.90;88.15
41573;BME280;27286;47.870;19.006;2023-02-02T07:59:13;99087.34;;;1.92;87.55
41573;BME280;27286;47.870;19.006;2023-02-02T08:01:38;99082.06;;;2.01;87.25
41573;BME280;27286;47.870;19.006;2023-02-02T08:04:04;99084.63;;;2.01;87.42
41573;BME280;27286;47.870;19.006;2023-02-02T08:06:38;99087.81;;;2.21;86.65
41573;BME280;27286;47.870;19.006;2023-02-02T08:09:06;99085.00;;;2.39;86.34
41573;BME280;27286;47.870;19.006;2023-02-02T08:11:35;99099.72;;;2.85;83.76
41573;BME280;27286;47.870;19.006;2023-02-02T08:14:03;99084.66;;;2.62;82.89
41573;BME280;27286;47.870;19.006;2023-02-02T08:16:30;99089.13;;;2.53;83.25
41573;BME280;27286;47.870;19.006;2023-02-02T08:18:57;99089.03;;;2.57;82.71
41573;BME280;27286;47.870;19.006;2023-02-02T08:21:23;99091.47;;;2.65;82.89
41573;BME280;27286;47.870;19.006;2023-02-02T08:23:51;99100.00;;;2.70;83.54
41573;BME280;27286;47.870;19.006;2023-02-02T08:26:22;99098.19;;;2.75;82.18
41573;BME280;27286;47.870;19.006;2023-02-02T08:28:52;99107.56;;;2.79;82.38
41573;BME280;27286;47.870;19.006;2023-02-02T08:31:20;99105.78;;;2.83;81.88
41573;BME280;27286;47.870;19.006;2023-02-02T08:33:46;99098.03;;;2.86;81.18
41573;BME280;27286;47.870;19.006;2023-02-02T08:36:17;99095.41;;;2.89;81.76
41573;BME280;27286;47.870;19.006;2023-02-02T08:38:44;99093.69;;;2.89;82.47
41573;BME280;27286;47.870;19.006;2023-02-02T08:41:13;99092.72;;;2.96;81.89
41573;BME280;27286;47.870;19.006;2023-02-02T08:43:39;99088.38;;;2.98;81.61
41573;BME280;27286;47.870;19.006;2023-02-02T08:46:07;99096.06;;;3.03;80.42
41573;BME280;27286;47.870;19.006;2023-02-02T08:48:34;99082.34;;;3.03;80.67
41573;BME280;27286;47.870;19.006;2023-02-02T08:51:00;99091.66;;;3.10;80.57
41573;BME280;27286;47.870;19.006;2023-02-02T08:53:25;99100.31;;;3.04;81.14
41573;BME280;27286;47.870;19.006;2023-02-02T08:55:59;99088.25;;;3.08;81.31
41573;BME280;27286;47.870;19.006;2023-02-02T08:58:26;99092.34;;;3.19;80.82
41573;BME280;27286;47.870;19.006;2023-02-02T09:00:52;99086.16;;;3.29;80.38
41573;BME280;27286;47.870;19.006;2023-02-02T09:03:17;99097.13;;;3.41;80.29
41573;BME280;27286;47.870;19.006;2023-02-02T09:05:42;99096.97;;;3.48;79.43
41573;BME280;27286;47.870;19.006;2023-02-02T09:08:08;99081.28;;;3.62;78.24
41573;BME280;27286;47.870;19.006;2023-02-02T09:10:35;99095.47;;;3.83;77.39
41573;BME280;27286;47.870;19.006;2023-02-02T09:13:00;99090.00;;;3.98;76.23
41573;BME280;27286;47.870;19.006;2023-02-02T09:15:26;99086.47;;;4.02;76.86
41573;BME280;27286;47.870;19.006;2023-02-02T09:17:51;99100.53;;;4.29;74.17
41573;BME280;27286;47.870;19.006;2023-02-02T09:20:17;99090.84;;;4.40;74.34
41573;BME280;27286;47.870;19.006;2023-02-02T09:22:42;99098.19;;;4.59;75.02
41573;BME280;27286;47.870;19.006;2023-02-02T09:25:08;99100.94;;;4.87;73.48
41573;BME280;27286;47.870;19.006;2023-02-02T09:27:37;99105.75;;;5.02;71.63
41573;BME280;27286;47.870;19.006;2023-02-02T09:30:05;99108.56;;;4.93;72.68
41573;BME280;27286;47.870;19.006;2023-02-02T09:32:31;99109.94;;;5.07;72.52
41573;BME280;27286;47.870;19.006;2023-02-02T09:34:56;99118.84;;;4.94;71.58
41573;BME280;27286;47.870;19.006;2023-02-02T09:37:22;99119.69;;;4.95;71.63
41573;BME280;27286;47.870;19.006;2023-02-02T09:39:47;99113.16;;;5.16;71.44
41573;BME280;27286;47.870;19.006;2023-02-02T09:45:11;99127.63;;;5.57;69.61
41573;BME280;27286;47.870;19.006;2023-02-02T09:47:55;99115.56;;;5.57;68.17
41573;BME280;27286;47.870;19.006;2023-02-02T09:56:03;99131.63;;;6.61;64.09
41573;BME280;27286;47.870;19.006;2023-02-02T09:58:33;99134.91;;;7.47;61.99
41573;BME280;27286;47.870;19.006;2023-02-02T10:01:15;99121.06;;;8.68;58.89
41573;BME280;27286;47.870;19.006;2023-02-02T10:04:23;99118.09;;;8.32;57.69
41573;BME280;27286;47.870;19.006;2023-02-02T10:06:48;99136.03;;;7.65;60.87
41573;BME280;27286;47.870;19.006;2023-02-02T10:14:33;99134.19;;;6.61;63.10
41573;BME280;27286;47.870;19.006;2023-02-02T10:17:17;99145.47;;;6.29;64.38
41573;BME280;27286;47.870;19.006;2023-02-02T10:19:44;99139.22;;;6.07;64.65
41573;BME280;27286;47.870;19.006;2023-02-02T10:22:14;99123.94;;;6.29;65.47
41573;BME280;27286;47.870;19.006;2023-02-02T10:24:42;99128.47;;;8.09;59.24
41573;BME280;27286;47.870;19.006;2023-02-02T10:27:13;99127.75;;;7.80;57.49
41573;BME280;27286;47.870;19.006;2023-02-02T10:29:56;99125.94;;;7.05;61.42
41573;BME280;27286;47.870;19.006;2023-02-02T10:40:16;99127.19;;;6.36;64.73
41573;BME280;27286;47.870;19.006;2023-02-02T10:43:17;99125.75;;;6.27;64.89
41573;BME280;27286;47.870;19.006;2023-02-02T10:45:58;99122.88;;;6.07;65.11
41573;BME280;27286;47.870;19.006;2023-02-02T10:48:30;99133.81;;;5.82;64.93
41573;BME280;27286;47.870;19.006;2023-02-02T10:51:00;99134.38;;;5.62;67.07
41573;BME280;27286;47.870;19.006;2023-02-02T10:53:28;99126.16;;;5.47;66.40
41573;BME280;27286;47.870;19.006;2023-02-02T10:56:06;99139.47;;;5.30;67.50
41573;BME280;27286;47.870;19.006;2023-02-02T11:01:29;99128.25;;;4.97;69.18
41573;BME280;27286;47.870;19.006;2023-02-02T11:03:55;99127.59;;;4.89;68.25
41573;BME280;27286;47.870;19.006;2023-02-02T11:06:39;99131.91;;;4.88;69.31
41573;BME280;27286;47.870;19.006;2023-02-02T11:09:27;99128.72;;;4.77;70.49
41573;BME280;27286;47.870;19.006;2023-02-02T11:12:00;99120.28;;;4.70;70.28
41573;BME280;27286;47.870;19.006;2023-02-02T11:14:42;99127.31;;;4.62;70.11
41573;BME280;27286;47.870;19.006;2023-02-02T11:17:20;99126.66;;;4.54;71.35
41573;BME280;27286;47.870;19.006;2023-02-02T11:19:47;99125.72;;;4.57;71.42
41573;BME280;27286;47.870;19.006;2023-02-02T11:22:28;99104.38;;;4.50;70.85
41573;BME280;27286;47.870;19.006;2023-02-02T11:24:56;99102.69;;;4.49;71.06
41573;BME280;27286;47.870;19.006;2023-02-02T11:27:27;99122.25;;;4.58;70.64
41573;BME280;27286;47.870;19.006;2023-02-02T11:29:57;99116.31;;;4.56;71.22
41573;BME280;27286;47.870;19.006;2023-02-02T11:32:31;99117.22;;;4.51;72.26
41573;BME280;27286;47.870;19.006;2023-02-02T11:37:30;99099.97;;;4.55;71.33
41573;BME280;27286;47.870;19.006;2023-02-02T11:40:17;99110.41;;;4.49;72.35
41573;BME280;27286;47.870;19.006;2023-02-02T11:42:49;99095.75;;;4.51;70.69
41573;BME280;27286;47.870;19.006;2023-02-02T11:45:43;99099.22;;;4.50;71.33
41573;BME280;27286;47.870;19.006;2023-02-02T11:48:15;99095.97;;;4.42;72.85
41573;BME280;27286;47.870;19.006;2023-02-02T11:50:50;99085.78;;;4.37;72.02
41573;BME280;27286;47.870;19.006;2023-02-02T11:56:09;99091.66;;;4.42;72.13
41573;BME280;27286;47.870;19.006;2023-02-02T11:58:51;99105.13;;;4.55;71.40
41573;BME280;27286;47.870;19.006;2023-02-02T12:01:37;99084.59;;;4.50;70.56
41573;BME280;27286;47.870;19.006;2023-02-02T12:06:37;99092.25;;;4.55;72.64
41573;BME280;27286;47.870;19.006;2023-02-02T12:09:21;99088.63;;;4.62;71.53
41573;BME280;27286;47.870;19.006;2023-02-02T12:11:59;99072.16;;;4.68;71.24
41573;BME280;27286;47.870;19.006;2023-02-02T12:34:16;99075.94;;;5.58;69.07
41573;BME280;27286;47.870;19.006;2023-02-02T12:36:46;99079.09;;;5.68;67.54
41573;BME280;27286;47.870;19.006;2023-02-02T12:47:23;99070.38;;;5.41;68.19
41573;BME280;27286;47.870;19.006;2023-02-02T12:57:52;99074.69;;;5.40;69.29
41573;BME280;27286;47.870;19.006;2023-02-02T13:09:06;99083.25;;;5.42;69.00
41573;BME280;27286;47.870;19.006;2023-02-02T13:11:45;99089.13;;;5.48;69.93
41573;BME280;27286;47.870;19.006;2023-02-02T13:16:52;99085.88;;;5.41;68.90
41573;BME280;27286;47.870;19.006;2023-02-02T13:19:38;99099.34;;;5.18;70.22
41573;BME280;27286;47.870;19.006;2023-02-02T13:22:07;99097.97;;;5.05;71.39
41573;BME280;27286;47.870;19.006;2023-02-02T13:24:37;99098.84;;;5.04;71.23
41573;BME280;27286;47.870;19.006;2023-02-02T13:27:06;99107.72;;;4.92;71.81
41573;BME280;27286;47.870;19.006;2023-02-02T13:32:20;99102.69;;;4.88;71.91
41573;BME280;27286;47.870;19.006;2023-02-02T13:37:38;99103.53;;;4.87;71.74
41573;BME280;27286;47.870;19.006;2023-02-02T13:40:26;99110.63;;;4.78;72.21
41573;BME280;27286;47.870;19.006;2023-02-02T13:48:23;99115.97;;;4.69;73.03
41573;BME280;27286;47.870;19.006;2023-02-02T13:59:27;99116.06;;;4.65;72.88
41573;BME280;27286;47.870;19.006;2023-02-02T14:01:59;99121.22;;;4.65;72.57
41573;BME280;27286;47.870;19.006;2023-02-02T14:04:28;99115.19;;;4.66;72.66
41573;BME280;27286;47.870;19.006;2023-02-02T14:07:00;99118.53;;;4.71;73.48
41573;BME280;27286;47.870;19.006;2023-02-02T14:09:31;99120.28;;;4.70;73.70
41573;BME280;27286;47.870;19.006;2023-02-02T14:12:00;99117.69;;;4.70;73.90
41573;BME280;27286;47.870;19.006;2023-02-02T14:14:27;99111.72;;;4.67;73.70
41573;BME280;27286;47.870;19.006;2023-02-02T14:16:58;99123.00;;;4.63;73.08
41573;BME280;27286;47.870;19.006;2023-02-02T14:34:43;99131.03;;;4.49;74.49
41573;BME280;27286;47.870;19.006;2023-02-02T14:45:22;99145.91;;;4.38;75.03
41573;BME280;27286;47.870;19.006;2023-02-02T14:47:58;99159.69;;;4.34;75.28
41573;BME280;27286;47.870;19.006;2023-02-02T14:53:06;99161.47;;;4.32;73.83
41573;BME280;27286;47.870;19.006;2023-02-02T14:56:10;99165.81;;;4.30;75.17
41573;BME280;27286;47.870;19.006;2023-02-02T14:58:40;99157.28;;;4.26;75.25
41573;BME280;27286;47.870;19.006;2023-02-02T15:06:23;99166.75;;;4.26;74.76
41573;BME280;27286;47.870;19.006;2023-02-02T15:19:39;99173.09;;;4.09;76.21
41573;BME280;27286;47.870;19.006;2023-02-02T15:25:25;99155.25;;;3.99;75.34
41573;BME280;27286;47.870;19.006;2023-02-02T15:28:12;99176.75;;;3.96;75.69
41573;BME280;27286;47.870;19.006;2023-02-02T15:30:44;99172.66;;;3.86;76.60
41573;BME280;27286;47.870;19.006;2023-02-02T15:33:25;99171.63;;;3.95;76.06
41573;BME280;27286;47.870;19.006;2023-02-02T15:35:53;99177.66;;;3.93;75.78
41573;BME280;27286;47.870;19.006;2023-02-02T15:38:29;99181.78;;;4.04;74.92
41573;BME280;27286;47.870;19.006;2023-02-02T15:41:02;99181.09;;;3.94;75.50
41573;BME280;27286;47.870;19.006;2023-02-02T15:43:28;99163.31;;;3.80;76.51
41573;BME280;27286;47.870;19.006;2023-02-02T15:46:00;99174.63;;;3.73;76.89
41573;BME280;27286;47.870;19.006;2023-02-02T15:48:31;99177.19;;;3.73;76.49